N320JN KNQX-KMIA
Flight info
| Callsign | N320JN |
|---|---|
| Flight time | N/A |
| Altitude | 5000 |
| Route | CARNU HASLM DHP |
| Aircraft | BE58/L-SDFGRY/C |
Departure
| Time | 2026-05-09 15:34 |
|---|---|
| Airport | Naval Air Station Key West/Boca Chica Field (KNQX) |
Arrival
| Time | N/A |
|---|---|
| Airport | Miami International Airport (KMIA) |
| Time | Latitude | Longitude | Altitude | Speed | Heading |
|---|---|---|---|---|---|
| 2026-05-09 15:08 | 24.55477 | -81.75667 | 14 ft | 0 kts | 6° |
| 2026-05-09 15:08 | 0.00000 | 0.00000 | 1056 ft | 0 kts | 355° |
| 2026-05-09 15:10 | 24.55477 | -81.75741 | 14 ft | 0 kts | 326° |
| 2026-05-09 15:28 | 24.55480 | -81.75743 | 14 ft | 4 kts | 327° |
| 2026-05-09 15:28 | 24.55515 | -81.75789 | 14 ft | 5 kts | 348° |
| 2026-05-09 15:28 | 24.55527 | -81.75849 | 13 ft | 19 kts | 269° |
| 2026-05-09 15:28 | 24.55525 | -81.76069 | 8 ft | 37 kts | 268° |
| 2026-05-09 15:29 | 24.55522 | -81.76387 | 7 ft | 41 kts | 270° |
| 2026-05-09 15:29 | 24.55519 | -81.76607 | 7 ft | 12 kts | 273° |
| 2026-05-09 15:29 | 24.55525 | -81.76640 | 8 ft | 0 kts | 309° |
| 2026-05-09 15:32 | 24.55562 | -81.76654 | 8 ft | 13 kts | 357° |
| 2026-05-09 15:33 | 24.55608 | -81.76637 | 8 ft | 0 kts | 88° |
| 2026-05-09 15:33 | 24.55610 | -81.76281 | 6 ft | 93 kts | 90° |
| 2026-05-09 15:33 | 24.55610 | -81.75427 | 148 ft | 125 kts | 90° |
| 2026-05-09 15:34 | 24.55615 | -81.74497 | 679 ft | 121 kts | 85° |
| 2026-05-09 15:34 | 24.55996 | -81.73613 | 1065 ft | 137 kts | 53° |
| 2026-05-09 15:34 | 24.56770 | -81.73023 | 1646 ft | 136 kts | 24° |
| 2026-05-09 15:34 | 24.57734 | -81.72854 | 2091 ft | 145 kts | 2° |
| 2026-05-09 15:35 | 24.58745 | -81.72953 | 2546 ft | 145 kts | 356° |
| 2026-05-09 15:35 | 24.59747 | -81.73061 | 2993 ft | 145 kts | 355° |
| 2026-05-09 15:35 | 24.60780 | -81.73207 | 3306 ft | 156 kts | 354° |
| 2026-05-09 15:35 | 24.61885 | -81.73367 | 3563 ft | 164 kts | 354° |
| 2026-05-09 15:36 | 24.63037 | -81.73530 | 3816 ft | 170 kts | 354° |
| 2026-05-09 15:36 | 24.64222 | -81.73694 | 4071 ft | 174 kts | 354° |
| 2026-05-09 15:36 | 24.65390 | -81.73515 | 4317 ft | 172 kts | 34° |
| 2026-05-09 15:36 | 24.66162 | -81.72568 | 4572 ft | 170 kts | 54° |
| 2026-05-09 15:37 | 24.67031 | -81.71672 | 4829 ft | 173 kts | 41° |
| 2026-05-09 15:37 | 24.67998 | -81.70869 | 5025 ft | 178 kts | 39° |
| 2026-05-09 15:37 | 24.69022 | -81.70023 | 5035 ft | 187 kts | 39° |
| 2026-05-09 15:37 | 24.70040 | -81.69177 | 5033 ft | 182 kts | 40° |
| 2026-05-09 15:38 | 24.71047 | -81.68339 | 5034 ft | 181 kts | 39° |
| 2026-05-09 15:38 | 24.72048 | -81.67506 | 5034 ft | 180 kts | 39° |
| 2026-05-09 15:38 | 24.73045 | -81.66676 | 5033 ft | 180 kts | 40° |
| 2026-05-09 15:38 | 24.74045 | -81.65842 | 4997 ft | 182 kts | 39° |
| 2026-05-09 15:39 | 24.75048 | -81.65007 | 4983 ft | 180 kts | 39° |
| 2026-05-09 15:39 | 24.76039 | -81.64182 | 4982 ft | 178 kts | 39° |
| 2026-05-09 15:39 | 24.77023 | -81.63362 | 4984 ft | 177 kts | 39° |
| 2026-05-09 15:39 | 24.78005 | -81.62544 | 4993 ft | 177 kts | 38° |
| 2026-05-09 15:40 | 24.78976 | -81.61734 | 4991 ft | 178 kts | 39° |
| 2026-05-09 15:40 | 24.79964 | -81.60911 | 4990 ft | 178 kts | 38° |
| 2026-05-09 15:40 | 24.80952 | -81.60087 | 4989 ft | 178 kts | 38° |
| 2026-05-09 15:40 | 24.81938 | -81.59264 | 4990 ft | 178 kts | 38° |
| 2026-05-09 15:41 | 24.82916 | -81.58448 | 4988 ft | 173 kts | 39° |
| 2026-05-09 15:41 | 24.83862 | -81.57659 | 4983 ft | 168 kts | 39° |
| 2026-05-09 15:41 | 24.84780 | -81.56892 | 4981 ft | 164 kts | 39° |
| 2026-05-09 15:41 | 24.85682 | -81.56139 | 4982 ft | 162 kts | 39° |
| 2026-05-09 15:42 | 24.86575 | -81.55393 | 4982 ft | 161 kts | 39° |
| 2026-05-09 15:42 | 24.87461 | -81.54652 | 4984 ft | 159 kts | 39° |
| 2026-05-09 15:42 | 24.88327 | -81.53930 | 4983 ft | 158 kts | 39° |
| 2026-05-09 15:42 | 24.89209 | -81.53193 | 4984 ft | 157 kts | 39° |
| 2026-05-09 15:43 | 24.90066 | -81.52476 | 4984 ft | 157 kts | 38° |
| 2026-05-09 15:43 | 24.90937 | -81.51748 | 4989 ft | 157 kts | 39° |
| 2026-05-09 15:43 | 24.91810 | -81.51018 | 4988 ft | 158 kts | 39° |
| 2026-05-09 15:43 | 24.92682 | -81.50290 | 4992 ft | 157 kts | 39° |
| 2026-05-09 15:44 | 24.93550 | -81.49563 | 4992 ft | 157 kts | 39° |
| 2026-05-09 15:44 | 24.94419 | -81.48837 | 4992 ft | 157 kts | 39° |
| 2026-05-09 15:44 | 24.95287 | -81.48111 | 4992 ft | 157 kts | 39° |
| 2026-05-09 15:44 | 24.96154 | -81.47385 | 4993 ft | 157 kts | 39° |
| 2026-05-09 15:45 | 24.97022 | -81.46659 | 4992 ft | 157 kts | 39° |
| 2026-05-09 15:45 | 24.97891 | -81.45931 | 4991 ft | 157 kts | 39° |
| 2026-05-09 15:45 | 24.98744 | -81.45206 | 4994 ft | 157 kts | 41° |
| 2026-05-09 15:45 | 24.99561 | -81.44415 | 4997 ft | 157 kts | 38° |
| 2026-05-09 15:46 | 25.00461 | -81.43732 | 4997 ft | 157 kts | 37° |
| 2026-05-09 15:46 | 25.01347 | -81.43026 | 4996 ft | 157 kts | 38° |
| 2026-05-09 15:46 | 25.02218 | -81.42306 | 5002 ft | 156 kts | 38° |
| 2026-05-09 15:46 | 25.03086 | -81.41580 | 5003 ft | 157 kts | 39° |
| 2026-05-09 15:47 | 25.03955 | -81.40852 | 5004 ft | 157 kts | 39° |
| 2026-05-09 15:47 | 25.04826 | -81.40122 | 5005 ft | 157 kts | 39° |
| 2026-05-09 15:47 | 25.05694 | -81.39394 | 5004 ft | 156 kts | 39° |
| 2026-05-09 15:47 | 25.06547 | -81.38679 | 5001 ft | 156 kts | 39° |
| 2026-05-09 15:48 | 25.07413 | -81.37953 | 5002 ft | 156 kts | 39° |
| 2026-05-09 15:48 | 25.08278 | -81.37227 | 5003 ft | 156 kts | 39° |
| 2026-05-09 15:48 | 25.09144 | -81.36500 | 5001 ft | 157 kts | 39° |
| 2026-05-09 15:48 | 25.10012 | -81.35772 | 5001 ft | 157 kts | 39° |
| 2026-05-09 15:49 | 25.10881 | -81.35043 | 5001 ft | 157 kts | 39° |
| 2026-05-09 15:49 | 25.11751 | -81.34313 | 5003 ft | 158 kts | 39° |
| 2026-05-09 15:49 | 25.12625 | -81.33578 | 5002 ft | 158 kts | 39° |
| 2026-05-09 15:49 | 25.13488 | -81.32854 | 5004 ft | 158 kts | 39° |
| 2026-05-09 15:50 | 25.14359 | -81.32118 | 5004 ft | 158 kts | 40° |
| 2026-05-09 15:50 | 25.15220 | -81.31369 | 5002 ft | 157 kts | 40° |
| 2026-05-09 15:50 | 25.16079 | -81.30623 | 5003 ft | 157 kts | 40° |
| 2026-05-09 15:50 | 25.16941 | -81.29876 | 5001 ft | 158 kts | 39° |
| 2026-05-09 15:51 | 25.17808 | -81.29126 | 4996 ft | 158 kts | 39° |
| 2026-05-09 15:51 | 25.18674 | -81.28377 | 4997 ft | 158 kts | 40° |
| 2026-05-09 15:51 | 25.19535 | -81.27632 | 4999 ft | 157 kts | 40° |
| 2026-05-09 15:51 | 25.20391 | -81.26891 | 4999 ft | 156 kts | 40° |
| 2026-05-09 15:52 | 25.22102 | -81.25409 | 4997 ft | 156 kts | 40° |
| 2026-05-09 15:52 | 25.22954 | -81.24672 | 4997 ft | 155 kts | 40° |
| 2026-05-09 15:52 | 25.23792 | -81.23946 | 4996 ft | 155 kts | 40° |
| 2026-05-09 15:53 | 25.24642 | -81.23209 | 4996 ft | 156 kts | 40° |
| 2026-05-09 15:53 | 25.25495 | -81.22470 | 4997 ft | 156 kts | 40° |
| 2026-05-09 15:53 | 25.26375 | -81.21708 | 5003 ft | 164 kts | 40° |
| 2026-05-09 15:53 | 25.27288 | -81.20916 | 5013 ft | 169 kts | 40° |
| 2026-05-09 15:54 | 25.28225 | -81.20103 | 5009 ft | 173 kts | 39° |
| 2026-05-09 15:54 | 25.29177 | -81.19278 | 5010 ft | 175 kts | 40° |
| 2026-05-09 15:54 | 25.30140 | -81.18443 | 5009 ft | 177 kts | 40° |
| 2026-05-09 15:54 | 25.31111 | -81.17601 | 5009 ft | 178 kts | 40° |
| 2026-05-09 15:55 | 25.32072 | -81.16768 | 5008 ft | 178 kts | 39° |
| 2026-05-09 15:55 | 25.33047 | -81.15921 | 5011 ft | 178 kts | 40° |
| 2026-05-09 15:55 | 25.34026 | -81.15072 | 5010 ft | 179 kts | 40° |
| 2026-05-09 15:55 | 25.35005 | -81.14222 | 5008 ft | 179 kts | 39° |
| 2026-05-09 15:56 | 25.35984 | -81.13371 | 5010 ft | 179 kts | 40° |
| 2026-05-09 15:56 | 25.36961 | -81.12523 | 5012 ft | 179 kts | 40° |
| 2026-05-09 15:56 | 25.37941 | -81.11672 | 5009 ft | 179 kts | 39° |
| 2026-05-09 15:56 | 25.38922 | -81.10818 | 5009 ft | 180 kts | 40° |
| 2026-05-09 15:57 | 25.39903 | -81.09966 | 5005 ft | 179 kts | 40° |
| 2026-05-09 15:57 | 25.40879 | -81.09118 | 5006 ft | 178 kts | 40° |
| 2026-05-09 15:57 | 25.41838 | -81.08284 | 5009 ft | 178 kts | 40° |
| 2026-05-09 15:57 | 25.42824 | -81.07426 | 5007 ft | 182 kts | 40° |
| 2026-05-09 15:58 | 25.43818 | -81.06561 | 5004 ft | 181 kts | 40° |
| 2026-05-09 15:58 | 25.44802 | -81.05705 | 5002 ft | 179 kts | 40° |
| 2026-05-09 15:58 | 25.45785 | -81.04849 | 5005 ft | 181 kts | 40° |
| 2026-05-09 15:58 | 25.46775 | -81.03989 | 5005 ft | 181 kts | 40° |
| 2026-05-09 15:59 | 25.47767 | -81.03123 | 5005 ft | 181 kts | 40° |
| 2026-05-09 15:59 | 25.48753 | -81.02266 | 5002 ft | 180 kts | 40° |
| 2026-05-09 15:59 | 25.49732 | -81.01414 | 4997 ft | 179 kts | 40° |
| 2026-05-09 15:59 | 25.50700 | -81.00569 | 4998 ft | 180 kts | 40° |
| 2026-05-09 16:00 | 25.51600 | -80.99617 | 4991 ft | 178 kts | 61° |
| 2026-05-09 16:00 | 25.51793 | -80.99208 | 4992 ft | 177 kts | 67° |
| 2026-05-09 16:00 | 25.52672 | -80.97170 | 4991 ft | 176 kts | 66° |
| 2026-05-09 16:00 | 25.53212 | -80.95959 | 4995 ft | 176 kts | 66° |
| 2026-05-09 16:01 | 25.53748 | -80.94744 | 4993 ft | 176 kts | 65° |
| 2026-05-09 16:01 | 25.54287 | -80.93524 | 4993 ft | 176 kts | 65° |
| 2026-05-09 16:01 | 25.54825 | -80.92306 | 4993 ft | 176 kts | 66° |
| 2026-05-09 16:01 | 25.55362 | -80.91089 | 4994 ft | 176 kts | 66° |
| 2026-05-09 16:02 | 25.55900 | -80.89872 | 4983 ft | 177 kts | 66° |
| 2026-05-09 16:02 | 25.56976 | -80.87437 | 4983 ft | 178 kts | 66° |
| 2026-05-09 16:02 | 25.57518 | -80.86210 | 4984 ft | 177 kts | 66° |
| 2026-05-09 16:03 | 25.58058 | -80.84985 | 4982 ft | 177 kts | 66° |
| 2026-05-09 16:03 | 25.58599 | -80.83760 | 4983 ft | 177 kts | 66° |
| 2026-05-09 16:03 | 25.59140 | -80.82533 | 4985 ft | 178 kts | 66° |
| 2026-05-09 16:03 | 25.59682 | -80.81301 | 4984 ft | 178 kts | 66° |
| 2026-05-09 16:04 | 25.60226 | -80.80065 | 4976 ft | 179 kts | 66° |
| 2026-05-09 16:04 | 25.60761 | -80.78848 | 4979 ft | 178 kts | 66° |
| 2026-05-09 16:04 | 25.61303 | -80.77618 | 4980 ft | 177 kts | 66° |
| 2026-05-09 16:04 | 25.61843 | -80.76392 | 4979 ft | 177 kts | 65° |
| 2026-05-09 16:05 | 25.62383 | -80.75167 | 4978 ft | 177 kts | 66° |
| 2026-05-09 16:05 | 25.62923 | -80.73936 | 4977 ft | 178 kts | 66° |
| 2026-05-09 16:05 | 25.63466 | -80.72701 | 4975 ft | 179 kts | 66° |
| 2026-05-09 16:05 | 25.64009 | -80.71461 | 4978 ft | 179 kts | 66° |
| 2026-05-09 16:06 | 25.64555 | -80.70217 | 4980 ft | 180 kts | 66° |
| 2026-05-09 16:06 | 25.65095 | -80.68987 | 4980 ft | 180 kts | 66° |
| 2026-05-09 16:06 | 25.65644 | -80.67736 | 4978 ft | 180 kts | 66° |